Latest Weather Observations for Kununurra Airport

IDD60801

Issued at 3:01 pm CST Sunday 29 May 2016 (issued every 30 minutes, with the page automatically refreshed every 10 minutes)

About weather observations | Map of weather stations | Latest weather observations for NT | Other Formats
Station Details ID: 002056 Name: KUNUNURRA AERO Lat: -15.78 Lon: 128.71 Height: 44.0 m
Data from the previous 72 hours. | See also: Recent months at Kununurra Airport
Date/Time
CST
Temp
°C
App
Temp
°C
Dew
Point
Rel
Hum
%
Delta-T
°C
Wind Press
QNH
hPa
Press
MSL
hPa
Rain
since 9 am
mm
Dir
 
Spd
km/h
Gust
km/h
Spd
kts
Gust
kts
29/03:00pm 35.4 36.1 17.1 33 11.8 NE 9 17 5 9 1010.3 1010.1 0.0
29/02:30pm 36.1 37.7 18.2 34 11.7 N 7 13 4 7 1010.7 1010.5 0.0
29/02:00pm 35.6 37.2 18.2 35 11.4 S 7 11 4 6 1011.2 1011.0 0.0
29/01:30pm 34.6 36.4 18.2 37 10.7 SSW 6 11 3 6 1011.6 1011.4 0.0
29/01:00pm 35.5 37.2 18.6 37 11.1 ESE 7 17 4 9 1012.2 1012.0 0.0
29/12:30pm 34.0 35.8 19.6 42 9.5 ESE 9 15 5 8 1012.7 1012.5 0.0
29/12:00pm 32.6 34.8 20.5 49 8.1 ESE 9 15 5 8 1013.2 1013.0 0.0
29/11:30am 31.7 35.3 22.4 58 6.4 SE 7 13 4 7 1013.5 1013.3 0.0
29/11:00am 30.8 34.1 21.9 59 6.0 ESE 7 11 4 6 1014.0 1013.8 0.0
29/10:30am 30.1 32.5 21.5 60 5.8 SSE 11 13 6 7 1014.3 1014.1 0.0
29/10:00am 29.3 32.6 21.8 64 5.1 S 7 9 4 5 1014.3 1014.1 0.0
29/09:30am 28.1 33.0 23.0 74 3.5 SE 2 6 1 3 1014.1 1013.9 0.0
29/09:00am 26.1 29.9 22.4 80 2.5 SSE 6 7 3 4 1013.9 1013.7 0.0
29/08:30am 24.8 28.4 22.1 85 1.8 S 6 7 3 4 1013.5 1013.3 0.0
29/08:00am 23.6 27.5 22.9 96 0.5 S 7 7 4 4 1013.1 1012.9 0.0
29/07:30am 21.2 25.2 20.5 96 0.5 CALM 0 0 0 0 1012.7 1012.5 0.0
29/07:00am 21.7 25.3 21.2 97 0.3 S 4 7 2 4 1012.3 1012.1 0.0
29/06:30am 20.9 24.7 20.1 95 0.5 CALM 0 0 0 0 1011.9 1011.7 0.0
29/06:00am 21.2 25.1 20.4 95 0.5 CALM 0 0 0 0 1011.5 1011.3 0.0
29/05:30am 21.8 25.4 20.6 93 0.8 SE 2 7 1 4 1011.1 1010.9 0.0
29/05:00am 21.7 24.4 20.3 92 0.9 SSE 6 6 3 3 1011.2 1011.0 0.0
29/04:30am 22.4 25.6 21.6 95 0.5 ENE 7 11 4 6 1011.0 1010.8 0.0
29/04:00am 22.4 26.7 21.2 93 0.8 CALM 0 7 0 4 1010.9 1010.7 0.0
29/03:30am 22.2 25.2 20.8 92 0.9 SE 6 7 3 4 1011.0 1010.8 0.0
29/03:00am 22.1 25.4 20.0 88 1.4 NE 2 6 1 3 1011.1 1010.9 0.0
29/02:30am 23.1 27.0 21.2 89 1.2 NNE 2 7 1 4 1011.3 1011.1 0.0
29/02:00am 22.7 26.1 21.0 90 1.1 WNW 4 7 2 4 1011.5 1011.3 0.0
29/01:30am 23.4 27.7 21.1 87 1.5 CALM 0 0 0 0 1011.6 1011.4 0.0
29/01:00am 23.2 26.1 20.7 86 1.6 SSW 6 6 3 3 1011.7 1011.5 0.0
29/12:30am 23.6 26.1 21.1 86 1.6 SW 9 11 5 6 1011.8 1011.6 0.0
29/12:00am 25.2 28.5 20.7 76 3.0 NE 4 7 2 4 1012.0 1011.8 0.0
 
Date/Time
CST
Temp
°C
App
Temp
°C
Dew
Point
Rel
Hum
%
Delta-T
°C
Wind Press
QNH
hPa
Press
MSL
hPa
Rain
since 9 am
mm
Dir
 
Spd
km/h
Gust
km/h
Spd
kts
Gust
kts
28/11:30pm 25.7 28.4 21.4 77 2.9 E 9 11 5 6 1012.1 1011.9 0.0
28/11:00pm 24.9 28.7 21.6 82 2.2 NNE 4 11 2 6 1012.0 1011.8 0.0
28/10:30pm 24.5 28.0 19.6 74 3.2 CALM 0 0 0 0 1012.1 1011.9 0.0
28/10:00pm 25.6 29.2 19.7 70 3.8 CALM 0 0 0 0 1012.1 1011.9 0.0
28/09:30pm 26.5 29.8 19.1 64 4.8 CALM 0 0 0 0 1012.0 1011.8 0.0
28/09:00pm 26.9 29.0 19.3 63 4.9 NW 7 9 4 5 1012.0 1011.8 0.0
28/08:30pm 27.4 30.6 18.9 59 5.5 CALM 0 0 0 0 1011.7 1011.5 0.0
28/08:00pm 28.7 30.8 19.3 56 6.1 NE 7 9 4 5 1011.4 1011.2 0.0
28/07:30pm 28.8 31.9 21.1 63 5.1 ENE 6 9 3 5 1010.9 1010.7 0.0
28/07:00pm 30.6 32.9 19.9 52 7.1 E 7 7 4 4 1010.5 1010.3 0.0
28/06:30pm 32.3 34.0 18.5 44 9.0 SE 7 9 4 5 1010.2 1010.0 0.0
28/06:00pm 34.6 35.6 16.4 33 11.6 SE 6 9 3 5 1010.0 1009.8 0.0
28/05:30pm 35.8 36.1 14.4 27 13.3 ENE 6 9 3 5 1009.7 1009.5 0.0
28/05:00pm 36.0 35.0 14.6 27 13.3 NE 13 15 7 8 1009.6 1009.4 0.0
28/04:30pm 36.2 35.1 14.2 26 13.6 NNE 13 22 7 12 1009.6 1009.4 0.0
28/04:00pm 36.6 36.2 15.1 27 13.5 E 11 15 6 8 1009.5 1009.3 0.0
28/03:30pm 36.2 36.5 16.9 32 12.4 SE 11 17 6 9 1009.7 1009.5 0.0
28/03:00pm 35.9 36.4 16.6 31 12.3 SSE 9 13 5 7 1009.9 1009.7 0.0
28/02:30pm 35.5 35.5 16.3 32 12.2 SE 11 17 6 9 1010.2 1010.0 0.0
28/02:00pm 35.5 36.5 16.8 33 12.0 ESE 7 13 4 7 1010.6 1010.4 0.0
28/01:30pm 35.5 36.6 17.2 33 11.8 ESE 7 11 4 6 1011.2 1011.0 0.0
28/01:00pm 34.3 35.0 17.9 37 10.6 ESE 11 17 6 9 1011.6 1011.4 0.0
28/12:30pm 33.6 34.8 17.3 37 10.5 ESE 7 11 4 6 1012.1 1011.9 0.0
28/12:00pm 32.6 33.4 17.2 39 9.8 SE 9 15 5 8 1012.8 1012.6 0.0
28/11:30am 32.2 33.2 17.7 42 9.3 SE 9 15 5 8 1013.4 1013.2 0.0
28/11:00am 31.4 32.2 17.3 43 9.0 SE 9 15 5 8 1013.8 1013.6 0.0
28/10:30am 30.2 31.7 18.0 48 7.8 S 7 9 4 5 1014.1 1013.9 0.0
28/10:00am 29.8 31.4 17.9 48 7.6 SE 6 7 3 4 1014.2 1014.0 0.0
28/09:30am 27.9 30.3 19.7 61 5.3 SW 6 7 3 4 1014.3 1014.1 0.0
28/09:00am 26.4 29.2 20.5 70 3.9 SW 6 7 3 4 1014.3 1014.1 0.0
28/08:30am 25.0 29.0 20.5 76 2.9 CALM 0 0 0 0 1014.1 1013.9 0.0
28/08:00am 22.9 26.4 20.4 86 1.6 NNE 2 7 1 4 1014.0 1013.8 0.0
28/07:30am 21.1 24.6 19.6 91 1.0 CALM 0 0 0 0 1013.6 1013.4 0.0
28/07:00am 20.7 24.2 19.5 93 0.8 CALM 0 0 0 0 1013.3 1013.1 0.0
28/06:30am 21.4 25.0 19.7 90 1.1 CALM 0 0 0 0 1012.9 1012.7 0.0
28/06:00am 21.7 25.0 19.1 85 1.6 CALM 0 0 0 0 1012.8 1012.6 0.0
28/05:30am 22.6 25.1 19.8 84 1.8 NE 6 9 3 5 1012.8 1012.6 0.0
28/05:00am 22.2 25.9 20.8 92 0.9 E 2 7 1 4 1012.8 1012.6 0.0
28/04:30am 22.5 25.5 20.8 90 1.1 E 6 7 3 4 1012.4 1012.2 0.0
28/04:00am 22.3 25.1 20.4 89 1.2 ESE 6 7 3 4 1012.3 1012.1 0.0
28/03:30am 22.8 26.3 20.3 86 1.6 ESE 2 6 1 3 1012.2 1012.0 0.0
28/03:00am 23.1 26.1 20.8 87 1.5 ESE 6 7 3 4 1012.2 1012.0 0.0
28/02:30am 23.1 26.9 20.2 84 1.9 CALM 0 0 0 0 1012.2 1012.0 0.0
28/02:00am 22.9 26.7 20.2 85 1.7 CALM 0 0 0 0 1012.4 1012.2 0.0
28/01:30am 22.6 26.3 19.9 85 1.7 CALM 0 0 0 0 1012.4 1012.2 0.0
28/01:00am 22.9 26.7 20.1 84 1.8 CALM 0 0 0 0 1012.4 1012.2 0.0
28/12:30am 23.4 26.8 19.3 78 2.6 CALM 0 0 0 0 1012.4 1012.2 0.0
28/12:00am 25.3 28.0 19.4 70 3.8 ENE 4 6 2 3 1012.6 1012.4 0.0
 
Date/Time
CST
Temp
°C
App
Temp
°C
Dew
Point
Rel
Hum
%
Delta-T
°C
Wind Press
QNH
hPa
Press
MSL
hPa
Rain
since 9 am
mm
Dir
 
Spd
km/h
Gust
km/h
Spd
kts
Gust
kts
27/11:30pm 25.1 27.4 20.6 76 2.9 NNE 9 13 5 7 1012.7 1012.5 0.0
27/11:00pm 25.8 27.3 19.0 66 4.4 N 9 9 5 5 1012.8 1012.6 0.0
27/10:30pm 24.9 26.4 18.8 69 3.9 N 9 11 5 6 1012.8 1012.6 0.0
27/10:00pm 25.6 27.4 18.8 66 4.3 NW 7 9 4 5 1012.6 1012.4 0.0
27/09:30pm 26.6 26.9 18.7 62 5.1 N 15 17 8 9 1012.3 1012.1 0.0
27/09:00pm 27.0 31.0 20.6 68 4.2 CALM 0 0 0 0 1012.0 1011.8 0.0
27/08:30pm 27.0 31.3 21.1 70 3.9 CALM 0 0 0 0 1011.7 1011.5 0.0
27/08:00pm 27.2 30.2 19.3 62 5.1 N 2 4 1 2 1011.5 1011.3 0.0
27/07:30pm 28.1 31.8 19.9 61 5.4 CALM 0 0 0 0 1011.2 1011.0 0.0
27/07:00pm 29.3 31.9 18.4 51 7.0 WSW 2 6 1 3 1011.1 1010.9 0.0
27/06:30pm 32.3 33.7 17.4 41 9.5 WSW 6 7 3 4 1010.8 1010.6 0.0
27/06:00pm 34.9 35.6 15.7 31 12.1 WSW 6 7 3 4 1010.7 1010.5 0.0
27/05:30pm 35.5 35.9 15.3 30 12.7 SSW 7 9 4 5 1010.7 1010.5 0.0
27/05:00pm 35.6 36.2 15.3 29 12.7 S 6 9 3 5 1010.5 1010.3 0.0
27/04:30pm 36.2 37.2 15.3 28 13.2 SW 4 9 2 5 1010.5 1010.3 0.0
27/04:00pm 35.9 36.2 15.1 29 13.0 SSW 7 13 4 7 1010.5 1010.3 0.0
27/03:30pm 36.0 36.4 15.2 29 13.1 S 7 13 4 7 1010.8 1010.6 0.0
27/03:00pm 35.7 35.8 15.4 29 12.8 SSE 9 11 5 6 1011.3 1011.1 0.0
27/02:30pm 35.3 34.9 16.1 32 12.2 S 13 17 7 9 1011.6 1011.4 0.0
27/02:00pm 35.1 34.6 15.9 31 12.1 SSE 13 15 7 8 1012.0 1011.8 0.0
27/01:30pm 34.5 34.4 15.9 33 11.7 SSE 11 19 6 10 1012.5 1012.3 0.0
27/01:00pm 35.1 33.8 15.9 31 12.1 SSE 17 22 9 12 1013.1 1012.9 0.0
27/12:30pm 34.5 33.6 15.9 33 11.7 SSE 15 19 8 10 1013.6 1013.4 0.0
27/12:00pm 34.4 33.1 15.8 33 11.7 SSE 17 22 9 12 1014.1 1013.9 0.0
27/11:30am 33.6 33.3 16.5 36 10.8 SSE 13 20 7 11 1014.6 1014.4 0.0
27/11:00am 32.8 33.8 18.6 43 9.2 SSE 11 17 6 9 1014.7 1014.5 0.0
27/10:30am 31.3 33.3 19.9 50 7.5 SE 9 13 5 7 1015.0 1014.8 0.0
27/10:00am 30.2 32.8 20.4 55 6.5 SSE 7 9 4 5 1015.0 1014.8 0.0
27/09:30am 28.3 31.0 20.6 63 5.1 S 7 9 4 5 1015.0 1014.8 0.0
27/09:00am 27.1 30.3 19.7 64 4.8 SSE 2 7 1 4 1014.9 1014.7 0.0
27/08:30am 24.9 27.3 19.7 73 3.4 ENE 6 7 3 4 1014.7 1014.5 0.0
27/08:00am 23.1 26.9 20.1 83 1.9 CALM 0 0 0 0 1014.4 1014.2 0.0
27/07:30am 20.9 22.3 18.7 87 1.4 NW 9 11 5 6 1014.2 1014.0 0.0
27/07:00am 21.5 24.8 19.1 86 1.5 CALM 0 0 0 0 1013.9 1013.7 0.0
27/06:30am 22.2 25.7 19.6 85 1.7 CALM 0 2 0 1 1013.9 1013.7 0.0
27/06:00am 22.2 24.7 20.3 89 1.2 ESE 7 7 4 4 1013.5 1013.3 0.0
27/05:30am 21.5 25.3 20.1 92 0.9 CALM 0 0 0 0 1013.2 1013.0 0.0
27/05:00am 20.8 24.1 19.1 90 1.1 CALM 0 0 0 0 1013.1 1012.9 0.0
27/04:30am 20.6 23.8 18.9 90 1.1 CALM 0 0 0 0 1012.8 1012.6 0.0
27/04:00am 21.8 24.6 20.4 92 0.9 W 6 7 3 4 1012.7 1012.5 0.0
27/03:30am 21.6 25.3 19.9 90 1.1 CALM 0 0 0 0 1012.8 1012.6 0.0
27/03:00am 21.8 25.5 19.9 89 1.2 CALM 0 0 0 0 1013.0 1012.8 0.0
27/02:30am 22.4 26.5 20.7 90 1.1 CALM 0 0 0 0 1013.2 1013.0 0.0
27/02:00am 22.5 26.4 20.4 88 1.4 CALM 0 0 0 0 1013.4 1013.2 0.0
27/01:30am 22.6 26.8 20.9 90 1.1 CALM 0 0 0 0 1013.4 1013.2 0.0
27/01:00am 23.0 27.0 20.5 86 1.6 CALM 0 0 0 0 1013.4 1013.2 0.0
27/12:30am 23.0 26.6 19.8 82 2.1 CALM 0 0 0 0 1013.5 1013.3 0.0
27/12:00am 23.5 27.1 19.8 80 2.4 CALM 0 0 0 0 1013.3 1013.1 0.0
 
Date/Time
CST
Temp
°C
App
Temp
°C
Dew
Point
Rel
Hum
%
Delta-T
°C
Wind Press
QNH
hPa
Press
MSL
hPa
Rain
since 9 am
mm
Dir
 
Spd
km/h
Gust
km/h
Spd
kts
Gust
kts
26/11:30pm 24.4 28.0 19.7 75 3.0 CALM 0 0 0 0 1013.4 1013.2 0.0
26/11:00pm 24.1 26.3 19.6 76 2.9 W 7 9 4 5 1013.6 1013.4 0.0
26/10:30pm 24.6 26.6 19.2 72 3.5 N 7 7 4 4 1013.5 1013.3 0.0
26/10:00pm 25.1 27.3 19.5 71 3.6 NNW 7 7 4 4 1013.4 1013.2 0.0
26/09:30pm 25.7 26.8 19.6 69 3.9 NNE 13 15 7 8 1013.3 1013.1 0.0
26/09:00pm 25.6 29.7 20.8 75 3.2 CALM 0 0 0 0 1013.2 1013.0 0.0
26/08:30pm 26.7 29.1 20.1 67 4.3 E 7 7 4 4 1013.0 1012.8 0.0
26/08:00pm 27.6 30.8 21.2 68 4.3 SSE 6 7 3 4 1012.9 1012.7 0.0
26/07:30pm 28.9 31.8 19.8 58 6.0 E 4 7 2 4 1012.5 1012.3 0.0
26/07:00pm 30.1 34.1 20.6 56 6.3 CALM 0 0 0 0 1012.2 1012.0 0.0
26/06:30pm 32.1 34.2 19.4 47 8.3 SE 7 9 4 5 1011.9 1011.7 0.0
26/06:00pm 34.1 35.2 16.5 35 11.2 SE 6 7 3 4 1011.6 1011.4 0.0
26/05:30pm 34.8 35.5 16.1 32 11.8 S 7 13 4 7 1011.4 1011.2 0.0
26/05:00pm 34.9 35.8 16.2 32 11.9 W 6 9 3 5 1011.3 1011.1 0.0

Other Formats:

Comma delimited format used in spreadsheet applications
http://www.bom.gov.au/fwo/IDD60801/IDD60801.94216.axf

JavaScript Object Notation format (JSON) in row-major order
http://www.bom.gov.au/fwo/IDD60801/IDD60801.94216.json